Startpagina
METAR-TAF:

METAR-TAF

Vliegvelden :

Córdoba, Argentinië

breedte: 31-19S, lengte: 064-13W, hoogte: 484 m

Actueel weer

Dit bericht is 58 minuten geleden gemaakt, om 19:00 UTC
Wind 17 kt uit het noordnoordoosten
Temperatuur 31°C
Vochtigheid 16%
Druk 1006 hPa
Zicht 10 km of meer
geen wolken onder 1500 m en geen cumulonimbus

METAR: SACO 151900Z 02017KT CAVOK 31/02 Q1006 NOSIG

Tijdstip: 16:58 (19:58 UTC)

Verwachting

Dit bericht is 2 uur en het 58 minuten geleden gemaakt, om 17:00 UTC
Verwachting geldig van 15 om 18 UTC tot 16 om 18 UTC
Wind 10 kt uit het noordnoordoosten met uitschieters tot 20 kt
Zicht 10 km of meer
geen wolken onder 1500 m en geen cumulonimbus
Wijzigt naar
van 16 om 06 UTC tot 16 om 09 UTC
Wind 5 kt uit het noordnoordoosten
Zicht 10 km of meer
geen wolken onder 1500 m en geen cumulonimbus

TAF: SACO 151700Z 1518/1618 02010G20KT CAVOK TX32/1618Z TN13/1610Z BECMG 1606/1609 02005KT CAVOK

Waarnemingen en weersverwachtingen van meer dan 4000 vliegvelden (METAR en TAF).

De beschikbare stations zijn de gele en rode punten op de kaart.

Ga met uw muis naar het station om de naam te zien.

Klik dan om waarnemingen en weersverwachtingen te zien.

kaart wijzigen: klik op de groene knoppen met een zwart kruis om in te zoomen, op de groene knop met een streepje om uit te zoomen of op de groene pijlen voor aangrenzende kaarten.


METAR-TAF: